Etusivu
METAR-TAF:

METAR-TAF

Lentoasemat :

Clovis, New Mexico, Yhdysvallat

Leveyspiiri: 34-26N, Pituuspiiri: 103-05W, korkeus merenpinnasta: 1284 m

Tämänhetkinen sää

Tämä raportti tehtiin 1 tunti ja 5 minuuttia sitten, kello 23.56 UTC
Tuuli 11 kn etelästä
Lämpötila 7°C
Kosteus 70%
Ilmanpaine 1022 hPa
Näkyvyys: 16.1 km
selkeää

METAR: KCVN 112356Z AUTO 19011KT 10SM CLR 07/02 A3017 RMK AO2 SLP224 T00720022 10139 20072 56008

Aika: 18:01 (01:01 UTC)


TAF: puuttuu

Säähavainnot ja -ennusteet yli 4000 lentoasemalta (METAR- ja TAF-raportit).

Käytössä olevat sääasemat on merkitty karttaan keltaisilla ja punaisilla pisteillä.

Aseta hiiri pisteen päälle nähdäksesi sääaseman nimen.

Klikkaa sitten nähdäksesi säähavainnot ja -ennusteet.

Kartan vaihtaminen: klikkaa mustalla rastilla varustettuja vihreitä pisteitä, niin voit zoomata sisään; viivalla varustettua vihreää pistettä, niin voit zoomata ulos tai vihreitä nuolia, niin pääset viereisille kartoille.


METAR-TAF: